sensor_id;sensor_type;location;lat;lon;timestamp;pressure;altitude;pressure_sealevel;temperature;humidity
19526;BME280;9907;42.676;26.348;2024-02-28T00:00:44;99451.75;;;5.45;100.00
19526;BME280;9907;42.676;26.348;2024-02-28T00:03:11;99451.75;;;5.45;100.00
19526;BME280;9907;42.676;26.348;2024-02-28T00:05:37;99447.97;;;5.49;100.00
19526;BME280;9907;42.676;26.348;2024-02-28T00:08:02;99450.41;;;5.52;100.00
19526;BME280;9907;42.676;26.348;2024-02-28T00:10:28;99460.44;;;5.47;100.00
19526;BME280;9907;42.676;26.348;2024-02-28T00:12:53;99462.53;;;5.42;100.00
19526;BME280;9907;42.676;26.348;2024-02-28T00:15:19;99464.88;;;5.32;100.00
19526;BME280;9907;42.676;26.348;2024-02-28T00:17:44;99463.47;;;5.27;100.00
19526;BME280;9907;42.676;26.348;2024-02-28T00:20:10;99471.16;;;5.31;100.00
19526;BME280;9907;42.676;26.348;2024-02-28T00:22:36;99470.09;;;5.48;100.00
19526;BME280;9907;42.676;26.348;2024-02-28T00:25:02;99459.69;;;5.59;100.00
19526;BME280;9907;42.676;26.348;2024-02-28T00:27:32;99466.03;;;5.57;100.00
19526;BME280;9907;42.676;26.348;2024-02-28T00:29:57;99469.44;;;5.59;100.00
19526;BME280;9907;42.676;26.348;2024-02-28T00:32:23;99462.34;;;5.59;100.00
19526;BME280;9907;42.676;26.348;2024-02-28T00:34:48;99462.91;;;5.64;100.00
19526;BME280;9907;42.676;26.348;2024-02-28T00:37:14;99459.31;;;5.65;100.00
19526;BME280;9907;42.676;26.348;2024-02-28T00:39:39;99462.44;;;5.58;100.00
19526;BME280;9907;42.676;26.348;2024-02-28T00:42:05;99459.22;;;5.53;100.00
19526;BME280;9907;42.676;26.348;2024-02-28T00:44:30;99464.97;;;5.59;100.00
19526;BME280;9907;42.676;26.348;2024-02-28T00:46:56;99453.91;;;5.53;100.00
19526;BME280;9907;42.676;26.348;2024-02-28T00:49:22;99452.97;;;5.54;100.00
19526;BME280;9907;42.676;26.348;2024-02-28T00:51:47;99462.44;;;5.58;100.00
19526;BME280;9907;42.676;26.348;2024-02-28T00:54:12;99454.50;;;5.58;100.00
19526;BME280;9907;42.676;26.348;2024-02-28T00:56:38;99457.31;;;5.55;100.00
19526;BME280;9907;42.676;26.348;2024-02-28T00:59:03;99459.03;;;5.56;100.00
19526;BME280;9907;42.676;26.348;2024-02-28T01:01:31;99450.63;;;5.49;100.00
19526;BME280;9907;42.676;26.348;2024-02-28T01:03:58;99462.75;;;5.39;100.00
19526;BME280;9907;42.676;26.348;2024-02-28T01:06:23;99462.75;;;5.39;100.00
19526;BME280;9907;42.676;26.348;2024-02-28T01:08:48;99465.47;;;5.37;100.00
19526;BME280;9907;42.676;26.348;2024-02-28T01:11:14;99466.91;;;5.43;100.00
19526;BME280;9907;42.676;26.348;2024-02-28T01:13:40;99460.56;;;5.46;100.00
19526;BME280;9907;42.676;26.348;2024-02-28T01:16:10;99465.00;;;5.45;100.00
19526;BME280;9907;42.676;26.348;2024-02-28T01:18:37;99465.94;;;5.44;100.00
19526;BME280;9907;42.676;26.348;2024-02-28T01:21:04;99465.94;;;5.44;100.00
19526;BME280;9907;42.676;26.348;2024-02-28T01:23:30;99461.41;;;5.46;100.00
19526;BME280;9907;42.676;26.348;2024-02-28T01:25:57;99458.47;;;5.36;100.00
19526;BME280;9907;42.676;26.348;2024-02-28T01:28:23;99465.19;;;5.42;100.00
19526;BME280;9907;42.676;26.348;2024-02-28T01:30:48;99465.72;;;5.47;100.00
19526;BME280;9907;42.676;26.348;2024-02-28T01:33:15;99466.91;;;5.43;100.00
19526;BME280;9907;42.676;26.348;2024-02-28T01:35:41;99471.69;;;5.51;100.00
19526;BME280;9907;42.676;26.348;2024-02-28T01:38:06;99465.28;;;5.40;100.00
19526;BME280;9907;42.676;26.348;2024-02-28T01:40:31;99458.75;;;5.46;100.00
19526;BME280;9907;42.676;26.348;2024-02-28T01:43:07;99464.06;;;5.46;100.00
19526;BME280;9907;42.676;26.348;2024-02-28T01:45:53;99466.72;;;5.46;100.00
19526;BME280;9907;42.676;26.348;2024-02-28T01:48:22;99462.75;;;5.39;100.00
19526;BME280;9907;42.676;26.348;2024-02-28T01:50:47;99464.41;;;5.40;100.00
19526;BME280;9907;42.676;26.348;2024-02-28T01:53:14;99464.53;;;5.38;100.00
19526;BME280;9907;42.676;26.348;2024-02-28T01:55:40;99465.47;;;5.37;100.00
19526;BME280;9907;42.676;26.348;2024-02-28T01:58:06;99460.38;;;5.34;100.00
19526;BME280;9907;42.676;26.348;2024-02-28T02:00:33;99459.31;;;5.37;100.00
19526;BME280;9907;42.676;26.348;2024-02-28T02:03:02;99464.34;;;5.42;100.00
19526;BME280;9907;42.676;26.348;2024-02-28T02:05:28;99462.53;;;5.42;100.00
19526;BME280;9907;42.676;26.348;2024-02-28T02:07:54;99457.59;;;5.36;100.00
19526;BME280;9907;42.676;26.348;2024-02-28T02:10:23;99458.56;;;5.35;100.00
19526;BME280;9907;42.676;26.348;2024-02-28T02:13:09;99456.13;;;5.32;100.00
19526;BME280;9907;42.676;26.348;2024-02-28T02:15:35;99456.13;;;5.32;100.00
19526;BME280;9907;42.676;26.348;2024-02-28T02:18:00;99452.88;;;5.41;100.00
19526;BME280;9907;42.676;26.348;2024-02-28T02:20:26;99453.06;;;5.38;100.00
19526;BME280;9907;42.676;26.348;2024-02-28T02:22:56;99460.81;;;5.41;100.00
19526;BME280;9907;42.676;26.348;2024-02-28T02:25:21;99458.19;;;5.41;100.00
19526;BME280;9907;42.676;26.348;2024-02-28T02:27:47;99461.03;;;5.38;100.00
19526;BME280;9907;42.676;26.348;2024-02-28T02:30:13;99468.03;;;5.39;100.00
19526;BME280;9907;42.676;26.348;2024-02-28T02:32:38;99462.75;;;5.39;100.00
19526;BME280;9907;42.676;26.348;2024-02-28T02:35:04;99462.25;;;5.32;100.00
19526;BME280;9907;42.676;26.348;2024-02-28T02:37:31;99456.66;;;5.37;100.00
19526;BME280;9907;42.676;26.348;2024-02-28T02:39:56;99461.41;;;5.32;100.00
19526;BME280;9907;42.676;26.348;2024-02-28T02:42:22;99455.06;;;5.34;100.00
19526;BME280;9907;42.676;26.348;2024-02-28T02:44:48;99461.78;;;5.26;100.00
19526;BME280;9907;42.676;26.348;2024-02-28T02:47:14;99458.56;;;5.21;100.00
19526;BME280;9907;42.676;26.348;2024-02-28T02:49:39;99459.59;;;5.18;100.00
19526;BME280;9907;42.676;26.348;2024-02-28T02:52:06;99464.22;;;5.15;100.00
19526;BME280;9907;42.676;26.348;2024-02-28T02:54:33;99468.38;;;5.19;100.00
19526;BME280;9907;42.676;26.348;2024-02-28T02:56:58;99465.66;;;5.20;100.00
19526;BME280;9907;42.676;26.348;2024-02-28T02:59:24;99469.16;;;5.21;100.00
19526;BME280;9907;42.676;26.348;2024-02-28T03:01:50;99470.84;;;5.22;100.00
19526;BME280;9907;42.676;26.348;2024-02-28T03:04:16;99473.50;;;5.22;100.00
19526;BME280;9907;42.676;26.348;2024-02-28T03:06:41;99469.91;;;5.23;100.00
19526;BME280;9907;42.676;26.348;2024-02-28T03:09:06;99468.13;;;5.23;100.00
19526;BME280;9907;42.676;26.348;2024-02-28T03:11:33;99472.00;;;5.32;100.00
19526;BME280;9907;42.676;26.348;2024-02-28T03:14:03;99479.56;;;5.24;100.00
19526;BME280;9907;42.676;26.348;2024-02-28T03:16:29;99476.34;;;5.19;100.00
19526;BME280;9907;42.676;26.348;2024-02-28T03:18:54;99481.81;;;5.16;100.00
19526;BME280;9907;42.676;26.348;2024-02-28T03:21:31;99474.72;;;5.16;100.00
19526;BME280;9907;42.676;26.348;2024-02-28T03:24:02;99489.19;;;5.25;100.00
19526;BME280;9907;42.676;26.348;2024-02-28T03:26:28;99487.41;;;5.25;100.00
19526;BME280;9907;42.676;26.348;2024-02-28T03:29:00;99485.41;;;5.29;100.00
19526;BME280;9907;42.676;26.348;2024-02-28T03:31:51;99497.91;;;5.27;100.00
19526;BME280;9907;42.676;26.348;2024-02-28T03:34:30;99510.38;;;5.25;100.00
19526;BME280;9907;42.676;26.348;2024-02-28T03:36:57;99512.47;;;5.20;100.00
19526;BME280;9907;42.676;26.348;2024-02-28T03:39:22;99508.03;;;5.20;100.00
19526;BME280;9907;42.676;26.348;2024-02-28T03:41:51;99513.41;;;5.19;100.00
19526;BME280;9907;42.676;26.348;2024-02-28T03:44:21;99517.00;;;5.18;100.00
19526;BME280;9907;42.676;26.348;2024-02-28T03:46:48;99514.81;;;5.10;100.00
19526;BME280;9907;42.676;26.348;2024-02-28T03:49:19;99519.09;;;5.13;100.00
19526;BME280;9907;42.676;26.348;2024-02-28T03:51:46;99524.94;;;5.18;100.00
19526;BME280;9907;42.676;26.348;2024-02-28T03:54:17;99519.94;;;5.13;100.00
19526;BME280;9907;42.676;26.348;2024-02-28T03:56:44;99516.44;;;5.13;100.00
19526;BME280;9907;42.676;26.348;2024-02-28T03:59:12;99513.97;;;5.10;100.00
19526;BME280;9907;42.676;26.348;2024-02-28T04:01:39;99516.50;;;4.97;100.00
19526;BME280;9907;42.676;26.348;2024-02-28T04:04:04;99516.75;;;4.93;100.00
19526;BME280;9907;42.676;26.348;2024-02-28T04:06:33;99513.09;;;4.95;100.00
19526;BME280;9907;42.676;26.348;2024-02-28T04:08:58;99519.13;;;4.97;100.00
19526;BME280;9907;42.676;26.348;2024-02-28T04:11:24;99507.63;;;4.98;100.00
19526;BME280;9907;42.676;26.348;2024-02-28T04:13:49;99503.94;;;5.01;100.00
19526;BME280;9907;42.676;26.348;2024-02-28T04:16:15;99510.16;;;5.00;100.00
19526;BME280;9907;42.676;26.348;2024-02-28T04:18:40;99501.34;;;4.99;100.00
19526;BME280;9907;42.676;26.348;2024-02-28T04:21:05;99510.16;;;5.00;100.00
19526;BME280;9907;42.676;26.348;2024-02-28T04:23:31;99504.31;;;4.95;100.00
19526;BME280;9907;42.676;26.348;2024-02-28T04:25:56;99515.81;;;4.94;100.00
19526;BME280;9907;42.676;26.348;2024-02-28T04:28:22;99509.59;;;4.95;100.00
19526;BME280;9907;42.676;26.348;2024-02-28T04:30:47;99521.88;;;4.96;100.00
19526;BME280;9907;42.676;26.348;2024-02-28T04:33:13;99520.25;;;4.93;100.00
19526;BME280;9907;42.676;26.348;2024-02-28T04:35:38;99523.09;;;4.90;100.00
19526;BME280;9907;42.676;26.348;2024-02-28T04:38:04;99520.53;;;4.88;100.00
19526;BME280;9907;42.676;26.348;2024-02-28T04:40:30;99517.22;;;4.85;100.00
19526;BME280;9907;42.676;26.348;2024-02-28T04:42:55;99522.50;;;4.85;100.00
19526;BME280;9907;42.676;26.348;2024-02-28T04:45:20;99518.06;;;4.85;100.00
19526;BME280;9907;42.676;26.348;2024-02-28T04:47:48;99520.53;;;4.88;100.00
19526;BME280;9907;42.676;26.348;2024-02-28T04:50:17;99523.94;;;4.90;100.00
19526;BME280;9907;42.676;26.348;2024-02-28T04:52:42;99524.63;;;4.94;100.00
19526;BME280;9907;42.676;26.348;2024-02-28T04:55:08;99518.41;;;4.95;100.00
19526;BME280;9907;42.676;26.348;2024-02-28T04:57:34;99516.41;;;4.99;100.00
19526;BME280;9907;42.676;26.348;2024-02-28T05:00:02;99528.59;;;5.01;100.00
19526;BME280;9907;42.676;26.348;2024-02-28T05:02:29;99533.91;;;5.01;100.00
19526;BME280;9907;42.676;26.348;2024-02-28T05:04:54;99529.09;;;4.78;100.00
19526;BME280;9907;42.676;26.348;2024-02-28T05:07:20;99537.72;;;4.81;100.00
19526;BME280;9907;42.676;26.348;2024-02-28T05:09:45;99532.69;;;4.77;100.00
19526;BME280;9907;42.676;26.348;2024-02-28T05:12:11;99539.50;;;4.81;100.00
19526;BME280;9907;42.676;26.348;2024-02-28T05:14:39;99536.41;;;4.88;100.00
19526;BME280;9907;42.676;26.348;2024-02-28T05:17:04;99535.88;;;4.98;100.00
19526;BME280;9907;42.676;26.348;2024-02-28T05:19:30;99526.91;;;5.14;100.00
19526;BME280;9907;42.676;26.348;2024-02-28T05:21:58;99529.91;;;5.24;100.00
19526;BME280;9907;42.676;26.348;2024-02-28T05:24:23;99531.09;;;5.18;100.00
19526;BME280;9907;42.676;26.348;2024-02-28T05:26:48;99545.19;;;5.19;100.00
19526;BME280;9907;42.676;26.348;2024-02-28T05:29:20;99545.41;;;5.30;100.00
19526;BME280;9907;42.676;26.348;2024-02-28T05:31:47;99552.16;;;5.50;100.00
19526;BME280;9907;42.676;26.348;2024-02-28T05:34:12;99550.56;;;5.61;100.00
19526;BME280;9907;42.676;26.348;2024-02-28T05:36:40;99549.97;;;5.70;100.00
19526;BME280;9907;42.676;26.348;2024-02-28T05:39:06;99552.94;;;5.80;100.00
19526;BME280;9907;42.676;26.348;2024-02-28T05:41:33;99557.00;;;5.85;100.00
19526;BME280;9907;42.676;26.348;2024-02-28T05:43:59;99555.81;;;5.91;100.00
19526;BME280;9907;42.676;26.348;2024-02-28T05:46:24;99565.91;;;5.99;100.00
19526;BME280;9907;42.676;26.348;2024-02-28T05:48:50;99565.41;;;6.06;100.00
19526;BME280;9907;42.676;26.348;2024-02-28T05:51:16;99562.88;;;6.19;100.00
19526;BME280;9907;42.676;26.348;2024-02-28T05:53:43;99562.63;;;6.36;100.00
19526;BME280;9907;42.676;26.348;2024-02-28T05:56:12;99572.47;;;6.48;100.00
19526;BME280;9907;42.676;26.348;2024-02-28T05:58:46;99568.53;;;6.68;100.00
19526;BME280;9907;42.676;26.348;2024-02-28T06:01:15;99570.72;;;6.88;100.00
19526;BME280;9907;42.676;26.348;2024-02-28T06:03:40;99580.09;;;6.94;100.00
19526;BME280;9907;42.676;26.348;2024-02-28T06:06:07;99573.41;;;7.01;100.00
19526;BME280;9907;42.676;26.348;2024-02-28T06:08:34;99578.88;;;7.24;100.00
19526;BME280;9907;42.676;26.348;2024-02-28T06:11:00;99574.44;;;7.38;100.00
19526;BME280;9907;42.676;26.348;2024-02-28T06:13:27;99578.28;;;7.46;100.00
19526;BME280;9907;42.676;26.348;2024-02-28T06:15:54;99577.44;;;7.58;100.00
19526;BME280;9907;42.676;26.348;2024-02-28T06:18:19;99568.63;;;7.83;100.00
19526;BME280;9907;42.676;26.348;2024-02-28T06:20:44;99573.81;;;7.84;100.00
19526;BME280;9907;42.676;26.348;2024-02-28T06:23:10;99569.84;;;8.03;100.00
19526;BME280;9907;42.676;26.348;2024-02-28T06:25:35;99575.56;;;8.22;100.00
19526;BME280;9907;42.676;26.348;2024-02-28T06:28:01;99580.16;;;8.32;100.00
19526;BME280;9907;42.676;26.348;2024-02-28T06:30:28;99573.78;;;8.35;100.00
19526;BME280;9907;42.676;26.348;2024-02-28T06:32:53;99572.69;;;8.25;100.00
19526;BME280;9907;42.676;26.348;2024-02-28T06:35:20;99580.69;;;8.25;100.00
19526;BME280;9907;42.676;26.348;2024-02-28T06:37:46;99579.81;;;8.73;100.00
19526;BME280;9907;42.676;26.348;2024-02-28T06:40:16;99570.22;;;8.95;100.00
19526;BME280;9907;42.676;26.348;2024-02-28T06:42:43;99578.41;;;9.04;100.00
19526;BME280;9907;42.676;26.348;2024-02-28T06:45:09;99581.13;;;9.15;100.00
19526;BME280;9907;42.676;26.348;2024-02-28T06:47:39;99579.66;;;9.11;100.00
19526;BME280;9907;42.676;26.348;2024-02-28T06:50:06;99586.34;;;9.28;100.00
19526;BME280;9907;42.676;26.348;2024-02-28T06:52:32;99589.53;;;9.33;100.00
19526;BME280;9907;42.676;26.348;2024-02-28T06:54:58;99592.44;;;9.30;100.00
19526;BME280;9907;42.676;26.348;2024-02-28T06:57:25;99590.16;;;9.13;100.00
19526;BME280;9907;42.676;26.348;2024-02-28T06:59:50;99588.69;;;8.98;99.65
19526;BME280;9907;42.676;26.348;2024-02-28T07:02:16;99588.13;;;9.51;99.71
19526;BME280;9907;42.676;26.348;2024-02-28T07:04:42;99591.09;;;9.70;95.06
19526;BME280;9907;42.676;26.348;2024-02-28T07:07:26;99589.97;;;9.62;93.89
19526;BME280;9907;42.676;26.348;2024-02-28T07:09:51;99593.56;;;9.50;93.49
19526;BME280;9907;42.676;26.348;2024-02-28T07:12:17;99590.38;;;9.91;92.46
19526;BME280;9907;42.676;26.348;2024-02-28T07:14:42;99598.19;;;10.05;91.27
19526;BME280;9907;42.676;26.348;2024-02-28T07:17:09;99600.81;;;9.83;91.48
19526;BME280;9907;42.676;26.348;2024-02-28T07:19:36;99601.50;;;10.19;89.02
19526;BME280;9907;42.676;26.348;2024-02-28T07:22:01;99606.91;;;10.51;89.21
19526;BME280;9907;42.676;26.348;2024-02-28T07:24:28;99602.69;;;10.38;88.46
19526;BME280;9907;42.676;26.348;2024-02-28T07:26:53;99609.09;;;10.46;87.28
19526;BME280;9907;42.676;26.348;2024-02-28T07:29:21;99605.69;;;10.55;87.11
19526;BME280;9907;42.676;26.348;2024-02-28T07:31:46;99606.06;;;10.29;86.80
19526;BME280;9907;42.676;26.348;2024-02-28T07:34:11;99612.75;;;10.45;87.89
19526;BME280;9907;42.676;26.348;2024-02-28T07:36:37;99611.16;;;10.43;89.74
19526;BME280;9907;42.676;26.348;2024-02-28T07:39:04;99612.50;;;11.02;85.44
19526;BME280;9907;42.676;26.348;2024-02-28T07:41:31;99607.75;;;11.06;84.27
19526;BME280;9907;42.676;26.348;2024-02-28T07:43:58;99607.13;;;11.45;81.96
19526;BME280;9907;42.676;26.348;2024-02-28T07:46:25;99601.63;;;11.79;80.81
19526;BME280;9907;42.676;26.348;2024-02-28T07:48:50;99601.97;;;11.53;79.62
19526;BME280;9907;42.676;26.348;2024-02-28T07:51:17;99599.22;;;11.23;80.67
19526;BME280;9907;42.676;26.348;2024-02-28T07:53:43;99594.94;;;11.52;79.35
19526;BME280;9907;42.676;26.348;2024-02-28T07:56:16;99589.72;;;11.71;79.05
19526;BME280;9907;42.676;26.348;2024-02-28T07:58:42;99593.94;;;11.95;78.71
19526;BME280;9907;42.676;26.348;2024-02-28T08:01:07;99595.72;;;11.64;78.64
19526;BME280;9907;42.676;26.348;2024-02-28T08:03:34;99596.31;;;11.88;78.28
19526;BME280;9907;42.676;26.348;2024-02-28T08:06:01;99584.00;;;12.06;77.95
19526;BME280;9907;42.676;26.348;2024-02-28T08:08:28;99585.50;;;12.69;75.19
19526;BME280;9907;42.676;26.348;2024-02-28T08:10:53;99593.75;;;12.47;75.72
19526;BME280;9907;42.676;26.348;2024-02-28T08:13:19;99592.91;;;12.37;75.65
19526;BME280;9907;42.676;26.348;2024-02-28T08:15:45;99593.41;;;12.31;77.49
19526;BME280;9907;42.676;26.348;2024-02-28T08:18:10;99599.34;;;12.35;75.37
19526;BME280;9907;42.676;26.348;2024-02-28T08:20:37;99604.19;;;12.41;77.04
19526;BME280;9907;42.676;26.348;2024-02-28T08:23:06;99601.13;;;12.55;76.65
19526;BME280;9907;42.676;26.348;2024-02-28T08:25:32;99611.69;;;12.96;76.37
19526;BME280;9907;42.676;26.348;2024-02-28T08:27:57;99604.84;;;12.83;75.33
19526;BME280;9907;42.676;26.348;2024-02-28T08:30:22;99610.22;;;12.83;74.58
19526;BME280;9907;42.676;26.348;2024-02-28T08:32:48;99604.84;;;12.83;73.68
19526;BME280;9907;42.676;26.348;2024-02-28T08:35:14;99598.38;;;12.85;73.41
19526;BME280;9907;42.676;26.348;2024-02-28T08:37:39;99593.09;;;13.33;74.15
19526;BME280;9907;42.676;26.348;2024-02-28T08:40:06;99591.94;;;13.64;72.94
19526;BME280;9907;42.676;26.348;2024-02-28T08:42:33;99594.06;;;13.51;70.98
19526;BME280;9907;42.676;26.348;2024-02-28T08:45:00;99589.41;;;13.63;71.68
19526;BME280;9907;42.676;26.348;2024-02-28T08:47:26;99593.47;;;13.77;72.11
19526;BME280;9907;42.676;26.348;2024-02-28T08:49:53;99596.94;;;14.06;70.28
19526;BME280;9907;42.676;26.348;2024-02-28T08:52:20;99592.59;;;14.32;68.50
19526;BME280;9907;42.676;26.348;2024-02-28T08:54:46;99592.53;;;14.05;69.12
19526;BME280;9907;42.676;26.348;2024-02-28T08:57:12;99600.13;;;14.29;69.00
19526;BME280;9907;42.676;26.348;2024-02-28T08:59:37;99602.03;;;13.99;69.32
19526;BME280;9907;42.676;26.348;2024-02-28T09:02:03;99599.75;;;14.14;69.54
19526;BME280;9907;42.676;26.348;2024-02-28T09:04:29;99593.41;;;14.05;69.96
19526;BME280;9907;42.676;26.348;2024-02-28T09:06:54;99597.78;;;13.97;69.76
19526;BME280;9907;42.676;26.348;2024-02-28T09:09:20;99603.19;;;14.43;68.60
19526;BME280;9907;42.676;26.348;2024-02-28T09:11:46;99595.16;;;14.71;69.74
19526;BME280;9907;42.676;26.348;2024-02-28T09:14:11;99602.16;;;14.81;67.71
19526;BME280;9907;42.676;26.348;2024-02-28T09:16:37;99601.19;;;14.45;69.26
19526;BME280;9907;42.676;26.348;2024-02-28T09:19:03;99592.25;;;14.54;69.65
19526;BME280;9907;42.676;26.348;2024-02-28T09:21:29;99595.25;;;14.42;68.41
19526;BME280;9907;42.676;26.348;2024-02-28T09:23:55;99587.00;;;14.53;69.39
19526;BME280;9907;42.676;26.348;2024-02-28T09:26:20;99592.25;;;14.54;69.09
19526;BME280;9907;42.676;26.348;2024-02-28T09:29:04;99588.41;;;14.57;69.45
19526;BME280;9907;42.676;26.348;2024-02-28T09:31:30;99578.41;;;14.49;68.73
19526;BME280;9907;42.676;26.348;2024-02-28T09:33:55;99576.88;;;14.74;70.11
19526;BME280;9907;42.676;26.348;2024-02-28T09:36:23;99575.28;;;14.54;70.00
19526;BME280;9907;42.676;26.348;2024-02-28T09:38:49;99579.16;;;14.69;68.59
19526;BME280;9907;42.676;26.348;2024-02-28T09:41:14;99577.41;;;14.50;69.11
19526;BME280;9907;42.676;26.348;2024-02-28T09:43:41;99575.59;;;14.41;69.29
19526;BME280;9907;42.676;26.348;2024-02-28T09:46:08;99576.22;;;14.35;69.39
19526;BME280;9907;42.676;26.348;2024-02-28T09:48:39;99570.53;;;14.38;69.91
19526;BME280;9907;42.676;26.348;2024-02-28T09:51:06;99563.63;;;14.63;69.38
19526;BME280;9907;42.676;26.348;2024-02-28T09:53:33;99566.44;;;14.89;68.73
19526;BME280;9907;42.676;26.348;2024-02-28T09:55:58;99566.91;;;15.02;68.25
19526;BME280;9907;42.676;26.348;2024-02-28T09:58:26;99564.38;;;15.18;67.96
19526;BME280;9907;42.676;26.348;2024-02-28T10:00:52;99564.28;;;15.28;67.31
19526;BME280;9907;42.676;26.348;2024-02-28T10:03:21;99557.59;;;15.32;68.83
19526;BME280;9907;42.676;26.348;2024-02-28T10:05:48;99551.78;;;15.19;67.99
19526;BME280;9907;42.676;26.348;2024-02-28T10:08:14;99553.44;;;15.02;67.87
19526;BME280;9907;42.676;26.348;2024-02-28T10:10:49;99546.66;;;15.16;68.25
19526;BME280;9907;42.676;26.348;2024-02-28T10:13:19;99546.16;;;15.30;68.41
19526;BME280;9907;42.676;26.348;2024-02-28T10:15:45;99544.66;;;15.53;67.12
19526;BME280;9907;42.676;26.348;2024-02-28T10:18:11;99544.53;;;15.54;67.34
19526;BME280;9907;42.676;26.348;2024-02-28T10:20:36;99544.84;;;15.51;67.85
19526;BME280;9907;42.676;26.348;2024-02-28T10:23:05;99539.81;;;15.56;67.65
19526;BME280;9907;42.676;26.348;2024-02-28T10:25:32;99537.50;;;15.62;68.65
19526;BME280;9907;42.676;26.348;2024-02-28T10:28:02;99533.91;;;15.35;67.10
19526;BME280;9907;42.676;26.348;2024-02-28T10:30:27;99531.38;;;15.51;68.66
19526;BME280;9907;42.676;26.348;2024-02-28T10:32:53;99531.66;;;15.66;68.99
19526;BME280;9907;42.676;26.348;2024-02-28T10:35:28;99518.47;;;15.81;67.24
19526;BME280;9907;42.676;26.348;2024-02-28T10:37:54;99526.69;;;15.53;67.79
19526;BME280;9907;42.676;26.348;2024-02-28T10:40:22;99528.66;;;15.69;67.50
19526;BME280;9907;42.676;26.348;2024-02-28T10:42:48;99522.63;;;15.75;67.47
19526;BME280;9907;42.676;26.348;2024-02-28T10:45:17;99516.03;;;15.70;66.80
19526;BME280;9907;42.676;26.348;2024-02-28T10:47:50;99522.66;;;15.57;68.18
19526;BME280;9907;42.676;26.348;2024-02-28T10:50:15;99506.56;;;15.66;67.54
19526;BME280;9907;42.676;26.348;2024-02-28T10:52:44;99511.22;;;15.55;68.14
19526;BME280;9907;42.676;26.348;2024-02-28T10:55:13;99503.97;;;15.82;68.55
19526;BME280;9907;42.676;26.348;2024-02-28T10:57:40;99503.97;;;15.82;68.05
19526;BME280;9907;42.676;26.348;2024-02-28T11:00:07;99500.13;;;15.58;67.74
19526;BME280;9907;42.676;26.348;2024-02-28T11:02:40;99494.94;;;15.65;67.40
19526;BME280;9907;42.676;26.348;2024-02-28T11:05:08;99489.03;;;15.62;67.16
19526;BME280;9907;42.676;26.348;2024-02-28T11:07:34;99479.72;;;15.82;67.79
19526;BME280;9907;42.676;26.348;2024-02-28T11:10:05;99479.53;;;15.75;67.53
19526;BME280;9907;42.676;26.348;2024-02-28T11:12:31;99483.31;;;15.90;66.92
19526;BME280;9907;42.676;26.348;2024-02-28T11:15:05;99483.59;;;15.79;65.01
19526;BME280;9907;42.676;26.348;2024-02-28T11:17:40;99475.88;;;15.84;65.67
19526;BME280;9907;42.676;26.348;2024-02-28T11:20:12;99471.53;;;15.91;66.16
19526;BME280;9907;42.676;26.348;2024-02-28T11:22:39;99474.94;;;15.68;64.90
19526;BME280;9907;42.676;26.348;2024-02-28T11:25:09;99474.59;;;15.71;65.77
19526;BME280;9907;42.676;26.348;2024-02-28T11:27:48;99466.25;;;15.82;67.09
19526;BME280;9907;42.676;26.348;2024-02-28T11:30:14;99464.81;;;15.62;67.83
19526;BME280;9907;42.676;26.348;2024-02-28T11:32:40;99464.16;;;15.68;67.28
19526;BME280;9907;42.676;26.348;2024-02-28T11:35:06;99456.84;;;15.78;67.12
19526;BME280;9907;42.676;26.348;2024-02-28T11:37:34;99458.44;;;15.63;67.04
19526;BME280;9907;42.676;26.348;2024-02-28T11:39:59;99455.22;;;15.67;66.57
19526;BME280;9907;42.676;26.348;2024-02-28T11:42:25;99456.13;;;15.76;66.81
19526;BME280;9907;42.676;26.348;2024-02-28T11:44:54;99459.03;;;15.82;65.70
19526;BME280;9907;42.676;26.348;2024-02-28T11:47:23;99450.47;;;15.87;66.10
19526;BME280;9907;42.676;26.348;2024-02-28T11:49:49;99456.84;;;15.78;65.33
19526;BME280;9907;42.676;26.348;2024-02-28T11:52:14;99454.63;;;15.73;65.11
19526;BME280;9907;42.676;26.348;2024-02-28T11:54:41;99453.44;;;15.76;66.29
19526;BME280;9907;42.676;26.348;2024-02-28T11:57:07;99443.19;;;15.79;65.09
19526;BME280;9907;42.676;26.348;2024-02-28T11:59:39;99453.16;;;15.87;65.36
19526;BME280;9907;42.676;26.348;2024-02-28T12:02:15;99444.59;;;15.91;64.70
19526;BME280;9907;42.676;26.348;2024-02-28T12:04:44;99439.03;;;15.85;64.15
19526;BME280;9907;42.676;26.348;2024-02-28T12:07:10;99441.16;;;15.73;64.66
19526;BME280;9907;42.676;26.348;2024-02-28T12:09:37;99438.28;;;15.75;64.06
19526;BME280;9907;42.676;26.348;2024-02-28T12:12:06;99440.44;;;15.71;62.56
19526;BME280;9907;42.676;26.348;2024-02-28T12:14:32;99433.53;;;15.69;62.07
19526;BME280;9907;42.676;26.348;2024-02-28T12:17:01;99439.66;;;15.79;61.57
19526;BME280;9907;42.676;26.348;2024-02-28T12:19:27;99434.44;;;15.77;62.58
19526;BME280;9907;42.676;26.348;2024-02-28T12:21:55;99429.38;;;15.82;61.10
19526;BME280;9907;42.676;26.348;2024-02-28T12:24:58;99422.63;;;15.78;61.13
19526;BME280;9907;42.676;26.348;2024-02-28T12:27:26;99419.97;;;15.86;60.96
19526;BME280;9907;42.676;26.348;2024-02-28T12:29:51;99420.84;;;15.87;60.85
19526;BME280;9907;42.676;26.348;2024-02-28T12:32:16;99408.25;;;15.95;62.08
19526;BME280;9907;42.676;26.348;2024-02-28T12:34:43;99410.44;;;15.92;62.68
19526;BME280;9907;42.676;26.348;2024-02-28T12:37:08;99410.06;;;15.87;62.62
19526;BME280;9907;42.676;26.348;2024-02-28T12:39:34;99415.16;;;15.98;62.12
19526;BME280;9907;42.676;26.348;2024-02-28T12:42:00;99409.28;;;16.02;61.28
19526;BME280;9907;42.676;26.348;2024-02-28T12:44:28;99402.91;;;16.12;60.82
19526;BME280;9907;42.676;26.348;2024-02-28T12:47:04;99396.31;;;16.06;61.01
19526;BME280;9907;42.676;26.348;2024-02-28T12:49:58;99396.69;;;16.11;60.58
19526;BME280;9907;42.676;26.348;2024-02-28T12:52:33;99396.03;;;16.17;60.34
19526;BME280;9907;42.676;26.348;2024-02-28T12:55:00;99397.03;;;16.16;60.49
19526;BME280;9907;42.676;26.348;2024-02-28T12:57:28;99387.94;;;16.17;60.04
19526;BME280;9907;42.676;26.348;2024-02-28T12:59:57;99394.66;;;16.13;60.06